createdAt,value
2018-07-05T00:00:54.427Z,20.61
2018-07-05T00:03:34.301Z,20.58
2018-07-05T00:06:14.070Z,20.53
2018-07-05T00:08:53.947Z,20.49
2018-07-05T00:11:33.723Z,20.40
2018-07-05T00:14:13.860Z,20.40
2018-07-05T00:16:53.599Z,20.39
2018-07-05T00:19:33.547Z,20.32
2018-07-05T00:22:13.338Z,20.28
2018-07-05T00:24:52.997Z,20.23
2018-07-05T00:27:32.852Z,20.20
2018-07-05T00:30:12.827Z,20.15
2018-07-05T00:32:52.574Z,20.01
2018-07-05T00:35:32.538Z,20.00
2018-07-05T00:38:12.386Z,19.99
2018-07-05T00:40:52.501Z,20.00
2018-07-05T00:43:32.408Z,19.97
2018-07-05T00:46:12.190Z,19.91
2018-07-05T00:48:51.858Z,19.88
2018-07-05T00:51:31.731Z,19.91
2018-07-05T00:54:11.540Z,19.92
2018-07-05T00:56:51.383Z,19.90
2018-07-05T00:59:31.161Z,19.90
2018-07-05T01:02:11.059Z,19.87
2018-07-05T01:04:50.742Z,19.80
2018-07-05T01:07:30.805Z,19.74
2018-07-05T01:10:10.526Z,19.74
2018-07-05T01:12:50.404Z,19.71
2018-07-05T01:15:30.528Z,19.67
2018-07-05T01:18:10.360Z,19.64
2018-07-05T01:20:50.339Z,19.60
2018-07-05T01:23:30.262Z,19.50
2018-07-05T01:26:10.034Z,19.50
2018-07-05T01:28:50.029Z,19.46
2018-07-05T01:31:29.869Z,19.38
2018-07-05T01:34:09.662Z,19.39
2018-07-05T01:36:49.467Z,19.39
2018-07-05T01:39:29.219Z,19.39
2018-07-05T01:42:08.911Z,19.38
2018-07-05T01:44:48.740Z,19.34
2018-07-05T01:47:28.500Z,19.33
2018-07-05T01:50:08.334Z,19.32
2018-07-05T01:52:48.252Z,19.28
2018-07-05T01:55:28.036Z,19.25
2018-07-05T01:58:07.815Z,19.22
2018-07-05T02:00:48.088Z,19.20
2018-07-05T02:03:27.720Z,19.14
2018-07-05T02:06:07.657Z,19.03
2018-07-05T02:08:47.333Z,18.95
2018-07-05T02:11:27.430Z,18.93
2018-07-05T02:14:07.455Z,18.88
2018-07-05T02:16:47.237Z,18.79
2018-07-05T02:19:27.154Z,18.85
2018-07-05T02:22:07.193Z,18.85
2018-07-05T02:24:47.117Z,18.89
2018-07-05T02:27:26.889Z,18.89
2018-07-05T02:30:06.853Z,18.89
2018-07-05T02:32:46.789Z,18.85
2018-07-05T02:35:26.654Z,18.81
2018-07-05T02:38:11.787Z,18.85
2018-07-05T02:40:51.699Z,18.84
2018-07-05T02:43:31.589Z,18.82
2018-07-05T02:46:11.857Z,18.77
2018-07-05T02:48:51.746Z,18.71
2018-07-05T02:51:31.575Z,18.66
2018-07-05T02:54:11.324Z,18.65
2018-07-05T02:56:51.144Z,18.69
2018-07-05T02:59:31.300Z,18.69
2018-07-05T03:02:11.146Z,18.47
2018-07-05T03:04:51.139Z,18.50
2018-07-05T03:07:30.980Z,18.53
2018-07-05T03:10:11.209Z,18.54
2018-07-05T03:12:50.919Z,18.52
2018-07-05T03:15:30.872Z,18.51
2018-07-05T03:18:11.224Z,18.51
2018-07-05T03:20:51.210Z,18.46
2018-07-05T03:23:31.114Z,18.39
2018-07-05T03:26:10.765Z,18.42
2018-07-05T03:28:50.569Z,18.37
2018-07-05T03:31:30.309Z,18.34
2018-07-05T03:34:10.190Z,18.37
2018-07-05T03:36:50.064Z,18.41
2018-07-05T03:39:30.038Z,18.44
2018-07-05T03:42:09.827Z,18.41
2018-07-05T03:44:49.825Z,18.44
2018-07-05T03:47:30.012Z,18.43
2018-07-05T03:50:10.345Z,18.45
2018-07-05T03:52:50.220Z,18.45
2018-07-05T03:55:30.190Z,18.46
2018-07-05T03:58:10.028Z,18.54
2018-07-05T04:00:49.825Z,18.56
2018-07-05T04:03:29.921Z,18.55
2018-07-05T04:06:09.949Z,18.55
2018-07-05T04:08:49.723Z,18.60
2018-07-05T04:11:29.862Z,18.65
2018-07-05T04:14:10.017Z,18.67
2018-07-05T04:16:49.692Z,18.72
2018-07-05T04:19:29.574Z,18.75
2018-07-05T04:22:09.386Z,18.80
2018-07-05T04:24:49.154Z,18.81
2018-07-05T04:27:28.887Z,18.91
2018-07-05T04:30:08.657Z,18.92
2018-07-05T04:32:48.419Z,18.92
2018-07-05T04:35:28.081Z,19.00
2018-07-05T04:38:08.029Z,19.04
2018-07-05T04:40:47.902Z,19.12
2018-07-05T04:43:27.492Z,19.23
2018-07-05T04:46:07.145Z,19.30
2018-07-05T04:48:46.857Z,19.43
2018-07-05T04:51:26.727Z,19.53
2018-07-05T04:54:06.447Z,19.70
2018-07-05T04:56:46.063Z,19.70
2018-07-05T04:59:26.313Z,19.86
2018-07-05T05:02:06.082Z,19.99
2018-07-05T05:04:45.875Z,20.09
2018-07-05T05:07:25.629Z,20.21
2018-07-05T05:10:05.484Z,20.20
2018-07-05T05:12:45.271Z,20.23
2018-07-05T05:15:25.296Z,20.28
2018-07-05T05:18:05.132Z,20.28
2018-07-05T05:20:44.996Z,20.31
2018-07-05T05:23:24.907Z,20.33
2018-07-05T05:26:04.579Z,20.46
2018-07-05T05:28:44.519Z,20.57
2018-07-05T05:31:24.293Z,20.56
2018-07-05T05:34:04.103Z,20.61
2018-07-05T05:36:43.917Z,20.66
2018-07-05T05:39:23.547Z,20.75
2018-07-05T05:42:03.327Z,20.97
2018-07-05T05:44:43.385Z,20.98
2018-07-05T05:47:23.300Z,20.96
2018-07-05T05:50:03.367Z,21.06
2018-07-05T05:52:43.375Z,21.20
2018-07-05T05:55:23.234Z,21.15
2018-07-05T05:58:03.039Z,21.19
2018-07-05T06:00:43.207Z,21.35
2018-07-05T06:03:23.125Z,21.43
2018-07-05T06:06:03.542Z,21.55
2018-07-05T06:08:43.422Z,21.73
2018-07-05T06:11:23.464Z,21.76
2018-07-05T06:14:03.418Z,21.91
2018-07-05T06:16:43.207Z,22.01
2018-07-05T06:19:23.621Z,22.17
2018-07-05T06:22:03.768Z,22.34
2018-07-05T06:24:43.692Z,22.49
2018-07-05T06:27:23.523Z,22.54
2018-07-05T06:30:03.325Z,22.66
2018-07-05T06:32:42.965Z,22.93
2018-07-05T06:35:22.734Z,23.02
2018-07-05T06:38:02.723Z,23.18
2018-07-05T06:40:42.786Z,23.09
2018-07-05T06:43:22.711Z,23.16
2018-07-05T06:46:03.151Z,23.20
2018-07-05T06:48:42.950Z,23.36
2018-07-05T06:51:22.683Z,23.50
2018-07-05T06:54:02.391Z,23.61
2018-07-05T06:56:42.298Z,23.64
2018-07-05T06:59:21.962Z,23.72
2018-07-05T07:02:01.773Z,23.85
2018-07-05T07:04:41.565Z,24.08
2018-07-05T07:07:21.379Z,24.11
2018-07-05T07:10:01.570Z,24.28
2018-07-05T07:12:41.257Z,24.27
2018-07-05T07:15:21.039Z,23.94
2018-07-05T07:18:00.599Z,24.30
2018-07-05T07:20:40.504Z,24.22
2018-07-05T07:23:20.759Z,24.35
2018-07-05T07:26:00.485Z,24.35
2018-07-05T07:28:40.481Z,24.49
2018-07-05T07:31:21.191Z,24.64
2018-07-05T07:34:01.803Z,24.66
2018-07-05T07:36:41.981Z,24.85
2018-07-05T07:39:21.693Z,25.04
2018-07-05T07:41:50.642Z,25.11
2018-07-05T07:44:19.402Z,25.03
2018-07-05T07:46:47.646Z,25.29
2018-07-05T07:49:16.169Z,25.40
2018-07-05T07:51:43.620Z,25.32
2018-07-05T07:54:11.021Z,25.64
2018-07-05T07:56:38.608Z,25.84
2018-07-05T07:59:06.181Z,25.71
2018-07-05T08:01:34.885Z,25.60
2018-07-05T08:04:02.530Z,25.84
2018-07-05T08:06:30.026Z,25.76
2018-07-05T08:08:57.585Z,25.96
2018-07-05T08:11:25.708Z,25.86
2018-07-05T08:13:53.155Z,25.78
2018-07-05T08:16:20.690Z,25.91
2018-07-05T08:18:48.319Z,25.89
2018-07-05T08:21:15.730Z,25.91
2018-07-05T08:23:43.248Z,25.96
2018-07-05T08:26:10.824Z,25.93
2018-07-05T08:28:38.379Z,25.85
2018-07-05T08:31:05.804Z,25.69
2018-07-05T08:33:33.506Z,25.84
2018-07-05T08:36:00.961Z,26.19
2018-07-05T08:38:28.623Z,26.29
2018-07-05T08:40:56.236Z,26.23
2018-07-05T08:43:23.685Z,26.30
2018-07-05T08:45:51.351Z,26.08
2018-07-05T08:48:18.986Z,26.24
2018-07-05T08:50:46.412Z,26.30
2018-07-05T08:53:14.027Z,26.37
2018-07-05T08:55:41.508Z,26.55
2018-07-05T08:58:08.929Z,26.60
2018-07-05T09:00:36.356Z,26.75
2018-07-05T09:03:03.971Z,26.82
2018-07-05T09:05:31.559Z,27.02
2018-07-05T09:07:59.133Z,27.22
2018-07-05T09:10:26.733Z,27.57
2018-07-05T09:12:54.350Z,27.20
2018-07-05T09:15:21.910Z,27.03
2018-07-05T09:17:51.434Z,27.05
2018-07-05T09:20:18.857Z,27.54
2018-07-05T09:22:46.354Z,27.81
2018-07-05T09:25:13.823Z,27.60
2018-07-05T09:27:41.343Z,27.67
2018-07-05T09:30:09.003Z,27.58
2018-07-05T09:32:36.610Z,27.75
2018-07-05T09:35:04.027Z,27.33
2018-07-05T09:37:31.484Z,27.53
2018-07-05T09:39:58.938Z,27.75
2018-07-05T09:42:26.458Z,27.55
2018-07-05T09:44:54.127Z,27.55
2018-07-05T09:47:21.785Z,27.65
2018-07-05T09:49:49.425Z,27.94
2018-07-05T09:52:16.844Z,27.77
2018-07-05T09:54:44.362Z,28.01
2018-07-05T09:57:12.048Z,28.12
2018-07-05T09:59:40.847Z,27.49
2018-07-05T10:02:08.381Z,27.60
2018-07-05T10:04:36.047Z,28.11
2018-07-05T10:07:03.457Z,28.12
2018-07-05T10:09:30.934Z,28.22
2018-07-05T10:11:58.456Z,28.08
2018-07-05T10:14:25.952Z,27.88
2018-07-05T10:16:53.529Z,27.94
2018-07-05T10:19:21.117Z,27.93
2018-07-05T10:21:48.715Z,27.97
2018-07-05T10:24:16.198Z,28.33
2018-07-05T10:26:43.820Z,28.58
2018-07-05T10:29:23.766Z,28.48
2018-07-05T10:32:03.836Z,28.77
2018-07-05T10:34:31.419Z,28.41
2018-07-05T10:36:58.943Z,28.62
2018-07-05T10:39:26.477Z,28.61
2018-07-05T10:42:06.225Z,28.74
2018-07-05T10:44:46.149Z,29.24
2018-07-05T10:47:27.010Z,29.70
2018-07-05T10:50:07.030Z,29.12
2018-07-05T10:52:46.916Z,28.88
2018-07-05T10:55:26.724Z,29.27
2018-07-05T10:58:06.967Z,29.31
2018-07-05T11:00:46.902Z,29.23
2018-07-05T11:03:26.752Z,29.04
2018-07-05T11:06:06.562Z,29.00
2018-07-05T11:08:46.439Z,29.08
2018-07-05T11:11:26.270Z,29.54
2018-07-05T11:14:06.265Z,28.77
2018-07-05T11:16:46.256Z,29.01
2018-07-05T11:19:26.345Z,29.08
2018-07-05T11:22:06.003Z,29.59
2018-07-05T11:24:45.939Z,29.28
2018-07-05T11:27:25.745Z,29.43
2018-07-05T11:30:05.677Z,29.73
2018-07-05T11:32:45.505Z,30.28
2018-07-05T11:35:26.393Z,29.92
2018-07-05T11:38:05.973Z,29.66
2018-07-05T11:40:45.920Z,29.24
2018-07-05T11:43:25.712Z,29.65
2018-07-05T11:46:06.090Z,30.06
2018-07-05T11:48:45.774Z,29.94
2018-07-05T11:51:25.578Z,29.76
2018-07-05T11:54:05.218Z,30.25
2018-07-05T11:56:45.219Z,30.52
2018-07-05T11:59:25.057Z,30.33
2018-07-05T12:02:05.106Z,30.76
2018-07-05T12:04:45.019Z,30.76
2018-07-05T12:07:24.938Z,31.34
2018-07-05T12:10:04.757Z,31.63
2018-07-05T12:12:44.780Z,31.42
2018-07-05T12:15:24.420Z,31.20
2018-07-05T12:18:04.470Z,29.99
2018-07-05T12:20:44.217Z,29.53
2018-07-05T12:23:24.147Z,29.36
2018-07-05T12:26:03.825Z,29.22
2018-07-05T12:28:43.866Z,28.91
2018-07-05T12:31:23.709Z,28.60
2018-07-05T12:34:03.497Z,28.53
2018-07-05T12:36:43.291Z,28.36
2018-07-05T12:39:23.102Z,28.22
2018-07-05T12:42:02.849Z,28.09
2018-07-05T12:44:42.829Z,28.00
2018-07-05T12:47:22.629Z,27.82
2018-07-05T12:50:02.751Z,27.74
2018-07-05T12:52:42.588Z,27.47
2018-07-05T12:55:22.271Z,26.76
2018-07-05T12:58:02.078Z,26.29
2018-07-05T13:00:42.774Z,26.43
2018-07-05T13:03:22.718Z,26.56
2018-07-05T13:06:02.598Z,26.85
2018-07-05T13:08:42.376Z,26.98
2018-07-05T13:11:22.321Z,26.94
2018-07-05T13:14:02.144Z,27.13
2018-07-05T13:16:42.470Z,27.10
2018-07-05T13:19:22.333Z,27.38
2018-07-05T13:22:02.334Z,27.38
2018-07-05T13:24:42.022Z,27.31
2018-07-05T13:27:21.705Z,27.54
2018-07-05T13:30:01.601Z,27.57
2018-07-05T13:32:41.405Z,27.42
2018-07-05T13:35:21.185Z,26.75
2018-07-05T13:38:01.237Z,26.06
2018-07-05T13:40:41.190Z,25.28
2018-07-05T13:43:21.031Z,25.09
2018-07-05T13:46:00.697Z,24.45
2018-07-05T13:48:40.386Z,24.28
2018-07-05T13:51:20.289Z,23.97
2018-07-05T13:53:59.936Z,23.49
2018-07-05T13:56:39.972Z,23.14
2018-07-05T13:59:19.792Z,22.40
2018-07-05T14:01:59.526Z,21.93
2018-07-05T14:04:39.382Z,20.61
2018-07-05T14:07:19.594Z,20.25
2018-07-05T14:09:59.314Z,20.38
2018-07-05T14:12:38.915Z,20.11
2018-07-05T14:15:18.622Z,20.12
2018-07-05T14:17:58.465Z,19.85
2018-07-05T14:20:38.098Z,19.33
2018-07-05T14:23:18.051Z,18.85
2018-07-05T14:25:57.916Z,18.68
2018-07-05T14:28:37.626Z,18.55
2018-07-05T14:31:17.574Z,18.30
2018-07-05T14:33:57.347Z,18.26
2018-07-05T14:36:37.121Z,18.33
2018-07-05T14:39:17.105Z,18.52
2018-07-05T14:41:56.859Z,18.59
2018-07-05T14:44:36.685Z,18.66
2018-07-05T14:47:16.352Z,18.76
2018-07-05T14:49:56.173Z,18.92
2018-07-05T14:52:36.097Z,19.07
2018-07-05T14:55:18.225Z,19.24
2018-07-05T14:58:00.696Z,19.18
2018-07-05T15:00:40.844Z,19.17
2018-07-05T15:03:20.614Z,19.23
2018-07-05T15:06:00.366Z,19.42
2018-07-05T15:08:39.986Z,19.59
2018-07-05T15:11:19.895Z,19.59
2018-07-05T15:13:59.657Z,19.61
2018-07-05T15:16:39.621Z,19.50
2018-07-05T15:19:19.886Z,19.52
2018-07-05T15:21:59.494Z,19.49
2018-07-05T15:24:39.291Z,19.52
2018-07-05T15:27:19.061Z,19.50
2018-07-05T15:29:58.799Z,19.51
2018-07-05T15:32:38.446Z,19.57
2018-07-05T15:35:18.286Z,19.55
2018-07-05T15:37:57.955Z,19.45
2018-07-05T15:40:37.783Z,19.58
2018-07-05T15:43:17.592Z,19.61
2018-07-05T15:45:57.451Z,19.70
2018-07-05T15:48:37.286Z,19.69
2018-07-05T15:51:17.137Z,19.60
2018-07-05T15:53:57.076Z,19.61
2018-07-05T15:56:37.178Z,19.63
2018-07-05T15:59:16.893Z,19.52
2018-07-05T16:01:56.713Z,19.62
2018-07-05T16:04:36.537Z,19.62
2018-07-05T16:07:17.387Z,19.65
2018-07-05T16:09:57.203Z,19.66
2018-07-05T16:12:36.922Z,19.63
2018-07-05T16:15:16.735Z,19.73
2018-07-05T16:17:56.665Z,19.69
2018-07-05T16:20:36.665Z,19.70
2018-07-05T16:23:16.443Z,19.79
2018-07-05T16:25:56.109Z,19.90
2018-07-05T16:28:35.966Z,20.08
2018-07-05T16:31:16.025Z,20.08
2018-07-05T16:33:55.966Z,19.93
2018-07-05T16:36:35.938Z,19.98
2018-07-05T16:39:15.871Z,20.01
2018-07-05T16:41:55.836Z,20.04
2018-07-05T16:44:35.743Z,20.04
2018-07-05T16:47:15.564Z,19.81
2018-07-05T16:49:55.339Z,19.91
2018-07-05T16:52:35.230Z,20.04
2018-07-05T16:55:15.010Z,20.10
2018-07-05T16:57:54.729Z,20.06
2018-07-05T17:00:34.630Z,19.87
2018-07-05T17:03:14.366Z,19.83
2018-07-05T17:05:54.071Z,19.91
2018-07-05T17:08:33.861Z,19.84
2018-07-05T17:11:13.728Z,19.78
2018-07-05T17:13:53.514Z,19.71
2018-07-05T17:16:33.313Z,19.67
2018-07-05T17:19:13.011Z,19.81
2018-07-05T17:21:52.771Z,19.89
2018-07-05T17:24:32.541Z,20.01
2018-07-05T17:27:12.376Z,20.00
2018-07-05T17:29:52.190Z,20.02
2018-07-05T17:32:31.905Z,19.99
2018-07-05T17:35:11.672Z,19.98
2018-07-05T17:37:51.507Z,20.04
2018-07-05T17:40:31.358Z,20.00
2018-07-05T17:43:11.189Z,20.16
2018-07-05T17:45:51.348Z,20.05
2018-07-05T17:48:31.298Z,19.97
2018-07-05T17:51:11.196Z,19.98
2018-07-05T17:53:51.181Z,20.02
2018-07-05T17:56:30.985Z,20.07
2018-07-05T17:59:10.698Z,20.08
2018-07-05T18:01:50.631Z,20.06
2018-07-05T18:04:30.489Z,20.17
2018-07-05T18:07:10.328Z,20.01
2018-07-05T18:09:50.110Z,20.23
2018-07-05T18:12:29.857Z,20.20
2018-07-05T18:15:09.547Z,20.19
2018-07-05T18:17:52.588Z,20.13
2018-07-05T18:20:32.683Z,20.11
2018-07-05T18:23:12.463Z,19.93
2018-07-05T18:25:52.217Z,20.15
2018-07-05T18:28:31.927Z,20.15
2018-07-05T18:31:11.939Z,19.87
2018-07-05T18:33:51.839Z,19.82
2018-07-05T18:36:31.394Z,19.94
2018-07-05T18:39:11.240Z,20.09
2018-07-05T18:41:51.082Z,20.03
2018-07-05T18:44:31.106Z,19.96
2018-07-05T18:47:10.922Z,19.56
2018-07-05T18:49:50.717Z,19.64
2018-07-05T18:52:30.405Z,19.66
2018-07-05T18:55:10.461Z,19.57
2018-07-05T18:57:50.192Z,19.47
2018-07-05T19:00:30.310Z,19.32
2018-07-05T19:03:10.197Z,19.26
2018-07-05T19:05:50.179Z,19.35
2018-07-05T19:08:29.947Z,19.34
2018-07-05T19:11:09.979Z,19.32
2018-07-05T19:13:49.671Z,19.50
2018-07-05T19:16:29.650Z,19.51
2018-07-05T19:19:09.437Z,19.53
2018-07-05T19:21:49.436Z,19.48
2018-07-05T19:24:29.231Z,19.55
2018-07-05T19:27:09.007Z,19.64
2018-07-05T19:29:49.025Z,19.66
2018-07-05T19:32:28.848Z,19.74
2018-07-05T19:35:08.505Z,19.79
2018-07-05T19:37:48.406Z,19.76
2018-07-05T19:40:28.489Z,19.81
2018-07-05T19:43:08.217Z,19.69
2018-07-05T19:45:47.929Z,19.74
2018-07-05T19:48:27.782Z,19.74
2018-07-05T19:51:07.615Z,19.77
2018-07-05T19:53:47.565Z,19.82
2018-07-05T19:56:27.409Z,19.77
2018-07-05T19:59:07.361Z,19.77
2018-07-05T20:01:47.231Z,19.77
2018-07-05T20:04:26.992Z,19.78
2018-07-05T20:07:06.939Z,19.81
2018-07-05T20:09:46.774Z,19.83
2018-07-05T20:12:26.494Z,19.83
2018-07-05T20:15:06.386Z,19.87
2018-07-05T20:17:46.057Z,19.85
2018-07-05T20:20:26.024Z,19.82
2018-07-05T20:23:05.956Z,19.74
2018-07-05T20:25:45.936Z,19.73
2018-07-05T20:28:25.814Z,19.76
2018-07-05T20:31:05.690Z,19.79
2018-07-05T20:33:45.557Z,19.83
2018-07-05T20:36:25.369Z,19.85
2018-07-05T20:39:06.076Z,19.81
2018-07-05T20:41:45.990Z,19.82
2018-07-05T20:44:25.714Z,19.82
2018-07-05T20:47:05.492Z,19.82
2018-07-05T20:49:45.265Z,19.91
2018-07-05T20:52:25.077Z,19.86
2018-07-05T20:55:04.840Z,19.81
2018-07-05T20:57:44.718Z,19.68
2018-07-05T21:00:24.590Z,19.74
2018-07-05T21:03:04.390Z,19.77
2018-07-05T21:05:44.249Z,19.84
2018-07-05T21:08:24.071Z,19.94
2018-07-05T21:11:03.885Z,19.89
2018-07-05T21:13:43.651Z,19.77
2018-07-05T21:16:23.332Z,19.68
2018-07-05T21:19:03.164Z,19.74
2018-07-05T21:21:42.874Z,19.71
2018-07-05T21:24:22.703Z,19.66
2018-07-05T21:27:02.930Z,19.69
2018-07-05T21:29:42.699Z,19.83
2018-07-05T21:32:22.447Z,19.80
2018-07-05T21:35:02.252Z,19.76
2018-07-05T21:37:42.220Z,19.68
2018-07-05T21:40:22.211Z,19.77
2018-07-05T21:43:02.022Z,19.80
2018-07-05T21:45:41.998Z,19.78
2018-07-05T21:48:21.873Z,19.74
2018-07-05T21:51:01.739Z,19.68
2018-07-05T21:53:41.658Z,19.64
2018-07-05T21:56:21.465Z,19.71
2018-07-05T21:59:01.395Z,19.73
2018-07-05T22:01:41.326Z,19.69
2018-07-05T22:04:21.102Z,19.60
2018-07-05T22:07:00.740Z,19.60
2018-07-05T22:09:40.624Z,19.58
2018-07-05T22:12:20.401Z,19.61
2018-07-05T22:15:00.247Z,19.41
2018-07-05T22:17:45.271Z,19.40
2018-07-05T22:20:30.155Z,19.44
2018-07-05T22:23:15.199Z,19.50
2018-07-05T22:26:00.179Z,19.36
2018-07-05T22:28:45.260Z,19.29
2018-07-05T22:31:30.160Z,19.34
2018-07-05T22:34:09.939Z,19.29
2018-07-05T22:36:49.691Z,19.38
2018-07-05T22:39:29.586Z,19.31
2018-07-05T22:42:09.469Z,19.14
2018-07-05T22:44:49.281Z,19.20
2018-07-05T22:47:29.506Z,19.05
2018-07-05T22:50:09.332Z,18.97
2018-07-05T22:52:49.312Z,19.14
2018-07-05T22:55:29.029Z,19.02
2018-07-05T22:58:08.754Z,19.03
2018-07-05T23:00:48.645Z,19.14
2018-07-05T23:03:28.444Z,19.16
2018-07-05T23:06:08.233Z,19.24
2018-07-05T23:08:48.031Z,19.27
2018-07-05T23:11:27.901Z,19.26
2018-07-05T23:14:07.734Z,19.28
2018-07-05T23:16:47.561Z,19.16
2018-07-05T23:19:27.363Z,19.25
2018-07-05T23:22:07.087Z,19.21
2018-07-05T23:24:47.006Z,18.99
2018-07-05T23:27:27.466Z,19.07
2018-07-05T23:30:07.224Z,19.20
2018-07-05T23:32:47.622Z,19.27
2018-07-05T23:35:27.535Z,19.32
2018-07-05T23:38:07.374Z,19.40
2018-07-05T23:40:47.088Z,19.50
2018-07-05T23:43:27.265Z,19.42
2018-07-05T23:46:07.298Z,19.54
2018-07-05T23:48:47.320Z,19.47
2018-07-05T23:51:27.206Z,19.48
2018-07-05T23:54:07.266Z,19.38
2018-07-05T23:56:47.735Z,19.43
2018-07-05T23:59:27.982Z,19.47
